Time;durP1;ratioP1;P1;durP2;ratioP2;P2;SDS_P1;SDS_P2;PMS_P1;PMS_P2;Temp;Humidity;BMP_temperature;BMP_pressure;BME280_temperature;BME280_humidity;BME280_pressure;Samples;Min_cycle;Max_cycle;Signal;HPM_P1;HPM_P2
2024/02/29 00:02:02;;;;;;;;;;;;;;;28.70;26.12;98612.53;5094909;28;19920;-82
2024/02/29 00:04:28;;;;;;;;;;;;;;;29.03;25.88;98616.69;5088598;28;19990;-82
2024/02/29 00:06:55;;;;;;;;;;;;;;;29.32;25.28;98616.53;5092765;28;19920;-82
2024/02/29 00:09:21;;;;;;;;;;;;;;;29.37;25.22;98613.91;5088497;28;20010;-82
2024/02/29 00:11:48;;;;;;;;;;;;;;;29.48;25.03;98607.09;5078887;28;19927;-82
2024/02/29 00:14:15;;;;;;;;;;;;;;;29.39;25.34;98610.63;5089693;28;19946;-82
2024/02/29 00:16:43;;;;;;;;;;;;;;;29.16;25.34;98620.28;5096266;28;19920;-82
2024/02/29 00:19:09;;;;;;;;;;;;;;;29.02;25.64;98617.13;5096436;28;19917;-82
2024/02/29 00:21:35;;;;;;;;;;;;;;;28.98;25.71;98613.63;5096058;28;19916;-82
2024/02/29 00:24:01;;;;;;;;;;;;;;;28.99;25.79;98616.00;5095173;28;20370;-82
2024/02/29 00:26:27;;;;;;;;;;;;;;;29.06;25.61;98614.97;5094924;28;19920;-82
2024/02/29 00:28:54;;;;;;;;;;;;;;;29.01;25.71;98618.38;5094694;28;19924;-82
2024/02/29 00:31:21;;;;;;;;;;;;;;;29.08;25.61;98618.16;5092174;28;19920;-82
2024/02/29 00:33:47;;;;;;;;;;;;;;;29.35;25.17;98615.63;5093134;28;20268;-82
2024/02/29 00:36:13;;;;;;;;;;;;;;;29.41;24.87;98617.41;5084384;28;19921;-82
2024/02/29 00:38:40;;;;;;;;;;;;;;;29.42;25.19;98618.19;5084850;28;19973;-82
2024/02/29 00:41:06;;;;;;;;;;;;;;;29.43;25.22;98614.09;5085656;28;19927;-82
2024/02/29 00:43:33;;;;;;;;;;;;;;;29.08;25.36;98618.16;5090686;28;19965;-81
2024/02/29 00:45:59;;;;;;;;;;;;;;;28.95;25.57;98614.53;5090868;28;19916;-82
2024/02/29 00:48:25;;;;;;;;;;;;;;;29.07;25.37;98616.56;5094081;28;19920;-82
2024/02/29 00:50:51;;;;;;;;;;;;;;;29.14;25.57;98617.13;5095130;28;19916;-82
2024/02/29 00:53:17;;;;;;;;;;;;;;;29.48;24.90;98610.69;5091304;28;20019;-82
2024/02/29 00:55:44;;;;;;;;;;;;;;;29.78;24.80;98609.25;5095556;28;20350;-82
2024/02/29 00:58:10;;;;;;;;;;;;;;;29.79;24.40;98608.78;5095333;28;19916;-82
2024/02/29 01:00:36;;;;;;;;;;;;;;;29.65;24.78;98606.44;5095497;28;19916;-82
2024/02/29 01:03:02;;;;;;;;;;;;;;;29.65;24.61;98602.81;5087347;28;20365;-82
2024/02/29 01:05:28;;;;;;;;;;;;;;;29.52;24.77;98608.53;5092724;28;19916;-81
2024/02/29 01:07:54;;;;;;;;;;;;;;;29.47;24.79;98603.47;5093422;28;19924;-82
2024/02/29 01:10:20;;;;;;;;;;;;;;;29.28;25.11;98598.88;5090587;28;19965;-82
2024/02/29 01:12:46;;;;;;;;;;;;;;;29.14;25.23;98610.66;5088711;28;19935;-82
2024/02/29 01:15:12;;;;;;;;;;;;;;;29.38;24.77;98603.41;5088839;28;19920;-81
2024/02/29 01:17:40;;;;;;;;;;;;;;;29.76;24.39;98600.41;5094487;28;19966;-82
2024/02/29 01:20:06;;;;;;;;;;;;;;;29.59;24.64;98590.50;5094415;28;19924;-81
2024/02/29 01:22:32;;;;;;;;;;;;;;;29.77;24.38;98587.84;5074809;28;19921;-81
2024/02/29 01:24:58;;;;;;;;;;;;;;;29.93;24.11;98593.31;5094044;28;19931;-81
2024/02/29 01:27:24;;;;;;;;;;;;;;;29.94;24.12;98589.22;5087753;28;20010;-82
2024/02/29 01:29:50;;;;;;;;;;;;;;;30.02;24.04;98587.69;5089652;28;19920;-82
2024/02/29 01:32:16;;;;;;;;;;;;;;;29.93;23.87;98584.81;5093388;28;19920;-82
2024/02/29 01:34:42;;;;;;;;;;;;;;;29.69;24.46;98592.16;5081181;28;20364;-82
2024/02/29 01:37:08;;;;;;;;;;;;;;;29.21;25.15;98591.44;5088764;28;19965;-82
2024/02/29 01:39:34;;;;;;;;;;;;;;;28.43;25.82;98590.34;5090431;28;19924;-82
2024/02/29 01:42:01;;;;;;;;;;;;;;;27.87;26.74;98590.00;5086657;28;19920;-83
2024/02/29 01:44:27;;;;;;;;;;;;;;;28.10;26.47;98591.78;5089367;28;20033;-82
2024/02/29 01:46:53;;;;;;;;;;;;;;;28.11;26.40;98590.53;5091180;28;19943;-82
2024/02/29 01:49:20;;;;;;;;;;;;;;;28.12;26.32;98589.31;5093526;28;19935;-82
2024/02/29 01:51:47;;;;;;;;;;;;;;;28.08;26.37;98592.25;5088794;28;19924;-82
2024/02/29 01:54:13;;;;;;;;;;;;;;;27.71;26.86;98592.91;5087570;28;19920;-82
2024/02/29 01:56:40;;;;;;;;;;;;;;;27.87;26.85;98592.84;5089513;28;19924;-82
2024/02/29 01:59:06;;;;;;;;;;;;;;;27.98;26.50;98587.66;5092214;28;19967;-82
2024/02/29 02:01:33;;;;;;;;;;;;;;;28.04;26.46;98602.84;5090059;28;19939;-82
2024/02/29 02:03:59;;;;;;;;;;;;;;;28.05;26.20;98592.34;5089995;28;19926;-82
2024/02/29 02:06:25;;;;;;;;;;;;;;;27.93;26.44;98596.72;5091552;28;19961;-81
2024/02/29 02:08:51;;;;;;;;;;;;;;;27.86;26.57;98593.28;5089368;28;19968;-81
2024/02/29 02:11:17;;;;;;;;;;;;;;;27.95;26.53;98594.22;5086775;28;19920;-81
2024/02/29 02:13:43;;;;;;;;;;;;;;;28.16;26.22;98589.19;5091619;28;19920;-83
2024/02/29 02:16:09;;;;;;;;;;;;;;;28.36;25.93;98587.75;5091846;28;19926;-82
2024/02/29 02:18:35;;;;;;;;;;;;;;;28.44;25.94;98596.78;5090102;28;19973;-81
2024/02/29 02:21:02;;;;;;;;;;;;;;;28.72;25.37;98593.88;5093550;28;19947;-81
2024/02/29 02:23:28;;;;;;;;;;;;;;;29.05;24.95;98580.25;5090367;28;19927;-81
2024/02/29 02:25:57;;;;;;;;;;;;;;;29.05;24.92;98583.09;5089348;28;19928;-81
2024/02/29 02:28:24;;;;;;;;;;;;;;;29.16;24.80;98589.16;5089931;28;20260;-81
2024/02/29 02:30:50;;;;;;;;;;;;;;;29.45;24.70;98576.88;5085897;28;20379;-81
2024/02/29 02:33:16;;;;;;;;;;;;;;;29.64;24.27;98582.22;5090770;28;20368;-81
2024/02/29 02:35:42;;;;;;;;;;;;;;;29.31;24.80;98570.47;5088559;28;19971;-82
2024/02/29 02:38:08;;;;;;;;;;;;;;;29.02;25.03;98586.81;5090999;28;19927;-82
2024/02/29 02:40:35;;;;;;;;;;;;;;;28.96;25.14;98585.81;5092408;28;20007;-82
2024/02/29 02:43:01;;;;;;;;;;;;;;;29.09;24.95;98586.56;5092770;28;19974;-82
2024/02/29 02:45:28;;;;;;;;;;;;;;;28.94;25.01;98591.13;5089201;28;19917;-82
2024/02/29 02:47:54;;;;;;;;;;;;;;;28.96;25.12;98583.00;5081634;28;19924;-82
2024/02/29 02:50:20;;;;;;;;;;;;;;;28.95;25.38;98577.78;5091070;28;19916;-82
2024/02/29 02:52:47;;;;;;;;;;;;;;;27.91;26.43;98581.47;5092866;28;20391;-81
2024/02/29 02:55:13;;;;;;;;;;;;;;;27.72;26.67;98583.22;5086774;28;19931;-82
2024/02/29 02:57:39;;;;;;;;;;;;;;;26.60;28.11;98579.28;5088181;28;20435;-81
2024/02/29 03:00:06;;;;;;;;;;;;;;;26.22;28.68;98581.00;5079151;28;19920;-82
2024/02/29 03:02:33;;;;;;;;;;;;;;;26.59;28.34;98583.34;5087658;28;19920;-82
2024/02/29 03:04:59;;;;;;;;;;;;;;;26.51;28.31;98595.97;5105969;28;20405;-82
2024/02/29 03:07:25;;;;;;;;;;;;;;;27.26;27.29;98580.84;5112840;28;20264;-81
2024/02/29 03:09:51;;;;;;;;;;;;;;;27.76;26.69;98588.75;5092666;28;19921;-81
2024/02/29 03:12:17;;;;;;;;;;;;;;;28.12;26.28;98585.69;5087695;28;20390;-82
2024/02/29 03:14:43;;;;;;;;;;;;;;;28.34;25.92;98581.75;5088992;28;20276;-82
2024/02/29 03:17:09;;;;;;;;;;;;;;;28.64;25.58;98589.69;5093239;28;19916;-81
2024/02/29 03:19:35;;;;;;;;;;;;;;;29.06;25.30;98590.31;5089314;28;19920;-81
2024/02/29 03:22:01;;;;;;;;;;;;;;;29.38;24.49;98590.00;5093303;28;19923;-82
2024/02/29 03:24:27;;;;;;;;;;;;;;;29.46;24.71;98590.56;5092622;28;19920;-81
2024/02/29 03:26:53;;;;;;;;;;;;;;;29.69;24.36;98583.66;5093151;28;19958;-81
2024/02/29 03:29:19;;;;;;;;;;;;;;;29.58;24.35;98586.09;5093192;28;19962;-81
2024/02/29 03:31:45;;;;;;;;;;;;;;;29.29;24.65;98589.94;5091063;28;19924;-81
2024/02/29 03:34:11;;;;;;;;;;;;;;;28.97;25.04;98593.03;5092492;28;20441;-81
2024/02/29 03:36:37;;;;;;;;;;;;;;;28.03;26.01;98594.81;5089404;28;19924;-82
2024/02/29 03:39:05;;;;;;;;;;;;;;;27.77;26.39;98599.56;5092075;28;19947;-82
2024/02/29 03:41:31;;;;;;;;;;;;;;;27.56;26.77;98600.19;5092768;28;19923;-81
2024/02/29 03:43:58;;;;;;;;;;;;;;;27.16;27.18;98596.03;5092391;28;20393;-82
2024/02/29 03:46:24;;;;;;;;;;;;;;;25.77;29.07;98589.16;5092613;28;20002;-82
2024/02/29 03:48:50;;;;;;;;;;;;;;;26.51;28.04;98581.13;5074989;28;19954;-82
2024/02/29 03:51:18;;;;;;;;;;;;;;;27.18;27.10;98585.09;5092436;28;20348;-81
2024/02/29 03:53:44;;;;;;;;;;;;;;;27.30;26.84;98592.84;5090713;28;20022;-81
2024/02/29 03:56:10;;;;;;;;;;;;;;;27.97;26.17;98585.28;5092723;28;20435;-81
2024/02/29 03:58:37;;;;;;;;;;;;;;;28.33;25.61;98585.03;5088614;28;19923;-81
2024/02/29 04:01:05;;;;;;;;;;;;;;;28.55;25.32;98580.28;5090559;28;19959;-81
2024/02/29 04:03:31;;;;;;;;;;;;;;;28.52;25.55;98581.22;5091911;28;19951;-81
2024/02/29 04:05:57;;;;;;;;;;;;;;;28.49;25.43;98579.28;5090621;28;19920;-81
2024/02/29 04:08:23;;;;;;;;;;;;;;;28.62;25.18;98585.75;5091906;28;19920;-81
2024/02/29 04:10:50;;;;;;;;;;;;;;;28.76;24.91;98573.97;5090452;28;19924;-81
2024/02/29 04:13:17;;;;;;;;;;;;;;;28.56;25.44;98579.84;5091689;28;19920;-81
2024/02/29 04:15:43;;;;;;;;;;;;;;;28.66;25.22;98567.41;5091627;28;20380;-81
2024/02/29 04:18:09;;;;;;;;;;;;;;;28.80;24.95;98566.16;5092433;28;19920;-81
2024/02/29 04:20:35;;;;;;;;;;;;;;;28.78;25.11;98574.31;5090737;28;19920;-81
2024/02/29 04:23:01;;;;;;;;;;;;;;;28.62;25.20;98569.59;5095137;28;20287;-81
2024/02/29 04:25:27;;;;;;;;;;;;;;;28.68;24.98;98567.00;5092245;28;20014;-82
2024/02/29 04:27:53;;;;;;;;;;;;;;;28.55;25.30;98568.97;5095197;28;20340;-81
2024/02/29 04:30:19;;;;;;;;;;;;;;;28.21;25.72;98561.19;5093834;28;19920;-83
2024/02/29 04:32:45;;;;;;;;;;;;;;;28.34;25.62;98569.66;5094899;28;19924;-81
2024/02/29 04:35:11;;;;;;;;;;;;;;;28.56;25.14;98573.41;5095453;28;19920;-82
2024/02/29 04:37:38;;;;;;;;;;;;;;;28.48;25.52;98564.34;5092981;28;19924;-81
2024/02/29 04:40:04;;;;;;;;;;;;;;;28.33;25.65;98570.91;5092356;28;20280;-81
2024/02/29 04:42:30;;;;;;;;;;;;;;;28.03;25.96;98558.91;5090014;28;20367;-82
2024/02/29 04:44:56;;;;;;;;;;;;;;;28.00;25.94;98550.56;5087011;28;20258;-82
2024/02/29 04:47:23;;;;;;;;;;;;;;;28.24;25.78;98559.50;5092327;28;19924;-82
2024/02/29 04:49:49;;;;;;;;;;;;;;;28.17;25.76;98565.38;5095017;28;19924;-82
2024/02/29 04:52:15;;;;;;;;;;;;;;;27.90;26.01;98555.25;5094803;28;19972;-82
2024/02/29 04:54:41;;;;;;;;;;;;;;;28.11;25.85;98562.31;5068768;28;19969;-81
2024/02/29 04:57:07;;;;;;;;;;;;;;;28.04;25.86;98552.03;5084851;28;19986;-81
2024/02/29 04:59:33;;;;;;;;;;;;;;;28.13;25.76;98554.19;5094668;28;19920;-81
2024/02/29 05:01:59;;;;;;;;;;;;;;;28.16;25.63;98558.13;5081720;28;19928;-82
2024/02/29 05:04:25;;;;;;;;;;;;;;;28.25;25.58;98558.25;5090299;28;19955;-81
2024/02/29 05:06:53;;;;;;;;;;;;;;;28.41;25.47;98561.75;5073872;28;20299;-81
2024/02/29 05:09:19;;;;;;;;;;;;;;;28.27;25.42;98553.75;5095324;28;19978;-80
2024/02/29 05:11:46;;;;;;;;;;;;;;;28.25;25.60;98559.06;5088115;28;20029;-81
2024/02/29 05:14:12;;;;;;;;;;;;;;;28.29;25.46;98565.38;5094596;28;19977;-81
2024/02/29 05:16:39;;;;;;;;;;;;;;;28.40;25.54;98567.88;5094427;28;19934;-81
2024/02/29 05:19:04;;;;;;;;;;;;;;;28.55;25.09;98560.50;5093985;28;19936;-81
2024/02/29 05:21:30;;;;;;;;;;;;;;;28.54;25.07;98562.53;5088110;28;20445;-82
2024/02/29 05:23:57;;;;;;;;;;;;;;;28.57;25.13;98572.94;5089124;28;19931;-82
2024/02/29 05:26:23;;;;;;;;;;;;;;;28.33;25.58;98568.91;5089318;28;19928;-82
2024/02/29 05:28:49;;;;;;;;;;;;;;;28.38;25.27;98573.19;5090764;28;20014;-83
2024/02/29 05:31:15;;;;;;;;;;;;;;;28.90;24.78;98581.97;5092723;28;20009;-82
2024/02/29 05:33:41;;;;;;;;;;;;;;;29.11;24.44;98574.81;5084054;28;19920;-82
2024/02/29 05:36:07;;;;;;;;;;;;;;;28.89;24.81;98582.44;5087449;28;19953;-82
2024/02/29 05:38:33;;;;;;;;;;;;;;;29.30;24.38;98585.06;5087760;28;19980;-82
2024/02/29 05:41:02;;;;;;;;;;;;;;;29.18;24.29;98586.69;5091877;28;19982;-82
2024/02/29 05:43:28;;;;;;;;;;;;;;;29.15;24.33;98583.97;5093276;28;19920;-83
2024/02/29 05:45:54;;;;;;;;;;;;;;;29.16;24.63;98580.69;5086092;28;19924;-82
2024/02/29 05:48:20;;;;;;;;;;;;;;;29.17;24.51;98587.13;5089273;28;19927;-82
2024/02/29 05:50:46;;;;;;;;;;;;;;;29.28;24.40;98590.41;5088934;28;20368;-81
2024/02/29 05:53:14;;;;;;;;;;;;;;;29.31;24.37;98584.59;5088289;28;19920;-83
2024/02/29 05:55:41;;;;;;;;;;;;;;;29.43;24.17;98577.31;5083133;28;19924;-82
2024/02/29 05:58:07;;;;;;;;;;;;;;;29.03;24.68;98581.97;5090227;28;20387;-82
2024/02/29 06:00:33;;;;;;;;;;;;;;;28.84;24.83;98589.47;5092741;28;19955;-81
2024/02/29 06:02:59;;;;;;;;;;;;;;;28.96;24.65;98582.19;5092482;28;19919;-81
2024/02/29 06:05:25;;;;;;;;;;;;;;;28.91;24.83;98585.59;5093483;28;19927;-82
2024/02/29 06:07:51;;;;;;;;;;;;;;;29.29;24.18;98581.44;5093406;28;19920;-81
2024/02/29 06:10:19;;;;;;;;;;;;;;;29.56;24.13;98585.75;5091362;28;19926;-82
2024/02/29 06:12:45;;;;;;;;;;;;;;;29.47;24.15;98583.66;5093445;28;20265;-81
2024/02/29 06:15:11;;;;;;;;;;;;;;;29.62;23.96;98583.91;5093843;28;20018;-81
2024/02/29 06:17:37;;;;;;;;;;;;;;;29.66;24.20;98578.94;5093200;28;20035;-82
2024/02/29 06:20:09;;;;;;;;;;;;;;;29.41;24.22;98579.81;5093602;28;19920;-82
2024/02/29 06:22:36;;;;;;;;;;;;;;;29.40;24.23;98576.22;5093595;28;20269;-82
2024/02/29 06:25:04;;;;;;;;;;;;;;;29.06;24.54;98576.16;5091715;28;19938;-82
2024/02/29 06:27:30;;;;;;;;;;;;;;;28.89;24.95;98582.44;5092023;28;19916;-81
2024/02/29 06:29:56;;;;;;;;;;;;;;;29.20;24.50;98566.44;5093101;28;19966;-81
2024/02/29 06:32:24;;;;;;;;;;;;;;;29.02;24.95;98584.00;5092608;28;19920;-82
2024/02/29 06:34:50;;;;;;;;;;;;;;;29.12;24.64;98577.19;5091059;28;19920;-82
2024/02/29 06:37:17;;;;;;;;;;;;;;;28.95;25.09;98580.59;5092653;28;19935;-82
2024/02/29 06:39:44;;;;;;;;;;;;;;;28.75;25.35;98583.72;5091317;28;20029;-82
2024/02/29 06:42:10;;;;;;;;;;;;;;;28.97;25.09;98583.75;5092740;28;19920;-82
2024/02/29 06:44:36;;;;;;;;;;;;;;;29.07;24.82;98576.97;5092984;28;19920;-81
2024/02/29 06:47:02;;;;;;;;;;;;;;;28.85;24.99;98588.19;5092821;28;20043;-81
2024/02/29 06:49:28;;;;;;;;;;;;;;;28.70;25.29;98578.63;5090785;28;19923;-81
2024/02/29 06:51:54;;;;;;;;;;;;;;;28.61;25.35;98582.13;5092577;28;20458;-81
2024/02/29 06:54:20;;;;;;;;;;;;;;;28.76;25.20;98579.63;5087569;28;19925;-81
2024/02/29 06:56:46;;;;;;;;;;;;;;;28.96;24.94;98577.34;5089403;28;19924;-82
2024/02/29 06:59:12;;;;;;;;;;;;;;;28.76;25.32;98579.63;5092637;28;19920;-81
2024/02/29 07:01:38;;;;;;;;;;;;;;;28.73;25.47;98575.66;5091881;28;19927;-82
2024/02/29 07:04:04;;;;;;;;;;;;;;;28.89;25.05;98573.97;5092731;28;19924;-82
2024/02/29 07:06:30;;;;;;;;;;;;;;;28.97;24.88;98570.44;5092249;28;20377;-82
2024/02/29 07:08:56;;;;;;;;;;;;;;;28.81;25.28;98583.91;5092746;28;19920;-82
2024/02/29 07:11:22;;;;;;;;;;;;;;;28.94;25.02;98579.03;5092758;28;19965;-81
2024/02/29 07:13:49;;;;;;;;;;;;;;;28.85;25.27;98579.72;5092727;28;19942;-82
2024/02/29 07:16:15;;;;;;;;;;;;;;;29.01;25.21;98582.41;5092169;28;20440;-82
2024/02/29 07:18:41;;;;;;;;;;;;;;;29.03;24.96;98588.41;5092569;28;19926;-81
2024/02/29 07:21:07;;;;;;;;;;;;;;;28.79;25.22;98587.19;5092362;28;19928;-82
2024/02/29 07:23:33;;;;;;;;;;;;;;;27.91;26.27;98585.06;5092841;28;20469;-82
2024/02/29 07:26:03;;;;;;;;;;;;;;;28.51;25.52;98579.63;5092606;28;19925;-82
2024/02/29 07:28:30;;;;;;;;;;;;;;;28.47;25.67;98574.06;5092794;28;19923;-81
2024/02/29 07:30:56;;;;;;;;;;;;;;;28.22;25.72;98584.56;5092102;28;19927;-82
2024/02/29 07:33:23;;;;;;;;;;;;;;;27.96;26.27;98576.03;5092309;28;20009;-81
2024/02/29 07:35:49;;;;;;;;;;;;;;;28.38;25.69;98573.19;5092178;28;19955;-82
2024/02/29 07:38:15;;;;;;;;;;;;;;;28.73;25.37;98570.00;5092521;28;19920;-82
2024/02/29 07:40:41;;;;;;;;;;;;;;;28.80;25.41;98563.31;5092593;28;19928;-82
2024/02/29 07:43:07;;;;;;;;;;;;;;;28.45;25.93;98565.25;5092313;28;19920;-82
2024/02/29 07:45:33;;;;;;;;;;;;;;;27.68;26.79;98559.16;5092082;28;19920;-81
2024/02/29 07:48:00;;;;;;;;;;;;;;;26.92;27.68;98550.34;5092457;28;19956;-81
2024/02/29 07:50:26;;;;;;;;;;;;;;;26.34;28.76;98566.25;5092329;28;19927;-82
2024/02/29 07:52:52;;;;;;;;;;;;;;;26.69;28.39;98556.94;5070294;28;19921;-82
2024/02/29 07:55:18;;;;;;;;;;;;;;;26.71;28.34;98559.31;5095965;28;19932;-81
2024/02/29 07:57:44;;;;;;;;;;;;;;;27.49;27.23;98558.09;5096322;28;19924;-81
2024/02/29 08:00:11;;;;;;;;;;;;;;;27.93;26.85;98556.41;5095833;28;19920;-81
2024/02/29 08:02:42;;;;;;;;;;;;;;;27.83;26.63;98558.28;5095997;28;19920;-82
2024/02/29 08:05:08;;;;;;;;;;;;;;;28.45;26.53;98550.38;5095781;28;20412;-82
2024/02/29 08:07:34;;;;;;;;;;;;;;;28.33;26.32;98549.13;5078216;28;19932;-82
2024/02/29 08:10:01;;;;;;;;;;;;;;;28.55;26.24;98552.03;5096192;28;19927;-82
2024/02/29 08:12:27;;;;;;;;;;;;;;;28.47;25.94;98545.03;5095346;28;19920;-82
2024/02/29 08:14:53;;;;;;;;;;;;;;;28.38;25.84;98545.72;5096221;28;19920;-82
2024/02/29 08:17:19;;;;;;;;;;;;;;;28.38;26.46;98542.13;5095162;28;19951;-82
2024/02/29 08:19:45;;;;;;;;;;;;;;;28.67;26.34;98543.59;5077407;28;20304;-82
2024/02/29 08:22:13;;;;;;;;;;;;;;;27.62;27.06;98541.19;5094910;28;19920;-81
2024/02/29 08:24:39;;;;;;;;;;;;;;;28.26;26.75;98542.91;5096101;28;19924;-81
2024/02/29 08:27:06;;;;;;;;;;;;;;;29.09;25.65;98541.34;5095609;28;19931;-81
2024/02/29 08:29:32;;;;;;;;;;;;;;;29.46;25.39;98542.47;5095202;28;20427;-82
2024/02/29 08:31:58;;;;;;;;;;;;;;;29.60;25.26;98539.09;5095188;28;20313;-82
2024/02/29 08:34:24;;;;;;;;;;;;;;;29.27;25.31;98538.69;5095079;28;20287;-82
2024/02/29 08:36:50;;;;;;;;;;;;;;;28.77;25.36;98550.13;5095215;28;19920;-81
2024/02/29 08:39:17;;;;;;;;;;;;;;;28.86;26.37;98544.56;5095514;28;19920;-82
2024/02/29 08:41:44;;;;;;;;;;;;;;;29.22;25.98;98542.09;5086503;28;19924;-82
2024/02/29 08:44:10;;;;;;;;;;;;;;;29.46;26.28;98533.97;5095470;28;19927;-81
2024/02/29 08:46:36;;;;;;;;;;;;;;;27.37;27.05;98537.06;5076977;28;20303;-81
2024/02/29 08:49:03;;;;;;;;;;;;;;;27.15;27.85;98543.69;5094964;28;19920;-82
2024/02/29 08:51:29;;;;;;;;;;;;;;;28.03;27.04;98538.34;5089912;28;20396;-82
2024/02/29 08:53:55;;;;;;;;;;;;;;;28.40;26.67;98533.97;5083100;28;20046;-82
2024/02/29 08:56:21;;;;;;;;;;;;;;;29.04;26.31;98532.63;5092113;28;20031;-82
2024/02/29 08:58:47;;;;;;;;;;;;;;;29.66;25.30;98536.47;5094850;28;19919;-81
2024/02/29 09:01:13;;;;;;;;;;;;;;;29.69;24.92;98532.72;5095201;28;20443;-82
2024/02/29 09:03:39;;;;;;;;;;;;;;;29.56;25.07;98523.50;5094150;28;20022;-82
2024/02/29 09:06:05;;;;;;;;;;;;;;;29.96;24.51;98530.09;5094902;28;19959;-82
2024/02/29 09:08:31;;;;;;;;;;;;;;;29.80;24.74;98527.47;5075946;28;20441;-82
2024/02/29 09:10:57;;;;;;;;;;;;;;;28.91;25.93;98535.50;5094879;28;19920;-82
2024/02/29 09:13:23;;;;;;;;;;;;;;;28.71;26.54;98541.41;5094555;28;19920;-82
2024/02/29 09:15:49;;;;;;;;;;;;;;;29.40;25.77;98536.63;5094310;28;20287;-82
2024/02/29 09:18:15;;;;;;;;;;;;;;;29.48;26.09;98534.28;5089961;28;20412;-82
2024/02/29 09:20:41;;;;;;;;;;;;;;;29.91;24.73;98522.19;5091485;28;19920;-82
2024/02/29 09:23:07;;;;;;;;;;;;;;;28.64;26.75;98530.34;5094030;28;19920;-82
2024/02/29 09:25:34;;;;;;;;;;;;;;;28.23;27.47;98524.81;5094148;28;19931;-82
2024/02/29 09:28:00;;;;;;;;;;;;;;;27.05;28.30;98525.06;5094134;28;19973;-82
2024/02/29 09:30:27;;;;;;;;;;;;;;;27.54;28.25;98520.06;5094336;28;20349;-82
2024/02/29 09:32:55;;;;;;;;;;;;;;;28.25;27.22;98519.50;5087765;28;20388;-82
2024/02/29 09:35:21;;;;;;;;;;;;;;;26.72;29.29;98510.19;5092966;28;19927;-82
2024/02/29 09:37:47;;;;;;;;;;;;;;;25.94;30.77;98511.25;5094086;28;19932;-82
2024/02/29 09:40:15;;;;;;;;;;;;;;;26.91;29.52;98508.53;5094614;28;20065;-82
2024/02/29 09:42:42;;;;;;;;;;;;;;;27.74;28.22;98504.53;5094263;28;19924;-82
2024/02/29 09:45:11;;;;;;;;;;;;;;;26.31;29.82;98496.72;5092804;28;19921;-82
2024/02/29 09:47:38;;;;;;;;;;;;;;;25.99;30.27;98496.66;5093782;28;19973;-82
2024/02/29 09:50:04;;;;;;;;;;;;;;;25.14;32.32;98501.25;5087892;28;20111;-82
2024/02/29 09:52:33;;;;;;;;;;;;;;;26.37;30.31;98486.50;5091733;28;19970;-82
2024/02/29 09:55:03;;;;;;;;;;;;;;;27.58;28.84;98496.16;5093280;28;19981;-82
2024/02/29 09:57:30;;;;;;;;;;;;;;;28.24;28.14;98497.38;5092543;28;19927;-82
2024/02/29 09:59:57;;;;;;;;;;;;;;;29.03;26.09;98491.47;5092930;28;19916;-83
2024/02/29 10:02:23;;;;;;;;;;;;;;;28.89;26.80;98477.84;5093042;28;19924;-83
2024/02/29 10:04:49;;;;;;;;;;;;;;;28.92;26.76;98483.38;5093582;28;19928;-81
2024/02/29 10:07:15;;;;;;;;;;;;;;;29.71;26.99;98473.63;5093311;28;19930;-82
2024/02/29 10:09:42;;;;;;;;;;;;;;;30.22;25.44;98485.38;5080806;28;20429;-82
2024/02/29 10:12:08;;;;;;;;;;;;;;;30.35;25.57;98483.22;5076994;28;20011;-82
2024/02/29 10:14:34;;;;;;;;;;;;;;;30.40;25.12;98485.44;5090953;28;19924;-82
2024/02/29 10:17:02;;;;;;;;;;;;;;;30.46;25.29;98492.88;5092968;28;20423;-82
2024/02/29 10:19:28;;;;;;;;;;;;;;;30.53;24.58;98483.28;5092737;28;19924;-82
2024/02/29 10:21:54;;;;;;;;;;;;;;;30.83;24.31;98482.38;5092451;28;20391;-82
2024/02/29 10:24:21;;;;;;;;;;;;;;;30.50;24.59;98485.00;5092721;28;19939;-82
2024/02/29 10:26:48;;;;;;;;;;;;;;;30.33;24.47;98486.53;5092900;28;19928;-82
2024/02/29 10:29:16;;;;;;;;;;;;;;;30.11;24.28;98479.34;5092629;28;20434;-82
2024/02/29 10:31:42;;;;;;;;;;;;;;;30.61;23.91;98485.34;5093734;28;19923;-82
2024/02/29 10:34:12;;;;;;;;;;;;;;;30.09;24.15;98479.78;5093022;28;19921;-82
2024/02/29 10:36:38;;;;;;;;;;;;;;;29.44;25.03;98474.22;5078508;28;20018;-82
2024/02/29 10:39:04;;;;;;;;;;;;;;;27.96;26.76;98470.78;5093789;28;19931;-82
2024/02/29 10:41:31;;;;;;;;;;;;;;;27.44;27.31;98468.38;5093627;28;19916;-82
2024/02/29 10:44:01;;;;;;;;;;;;;;;26.56;28.28;98468.72;5089620;28;19920;-82
2024/02/29 10:46:27;;;;;;;;;;;;;;;28.26;27.48;98456.16;5093531;28;20391;-82
2024/02/29 10:49:01;;;;;;;;;;;;;;;28.79;26.25;98451.53;5087654;28;20303;-82
2024/02/29 10:51:33;;;;;;;;;;;;;;;29.46;25.71;98442.63;5072700;28;19943;-82
2024/02/29 10:54:08;;;;;;;;;;;;;;;28.76;25.77;98438.31;5081188;28;20006;-82
2024/02/29 10:56:35;;;;;;;;;;;;;;;27.96;26.52;98454.66;5093314;28;20038;-82
2024/02/29 10:59:07;;;;;;;;;;;;;;;27.42;27.55;98447.50;5092815;28;19923;-82
2024/02/29 11:01:36;;;;;;;;;;;;;;;28.08;27.31;98441.81;5093317;28;19923;-82
2024/02/29 11:04:03;;;;;;;;;;;;;;;28.96;25.92;98435.19;5093289;28;19954;-82
2024/02/29 11:06:33;;;;;;;;;;;;;;;29.22;25.40;98437.44;5093461;28;20477;-82
2024/02/29 11:09:01;;;;;;;;;;;;;;;28.35;26.29;98425.19;5093196;28;20019;-82
2024/02/29 11:11:27;;;;;;;;;;;;;;;29.53;25.42;98428.22;5093091;28;19916;-82
2024/02/29 11:14:06;;;;;;;;;;;;;;;29.95;25.01;98424.53;5092453;28;19921;-82
2024/02/29 11:16:32;;;;;;;;;;;;;;;30.35;23.67;98424.53;5093413;28;19924;-82
2024/02/29 11:19:04;;;;;;;;;;;;;;;30.46;24.19;98419.19;5093080;28;19916;-82
2024/02/29 11:21:30;;;;;;;;;;;;;;;29.23;25.28;98421.28;5093174;28;19946;-82
2024/02/29 11:24:03;;;;;;;;;;;;;;;28.67;26.04;98426.94;5093112;28;20243;-82
2024/02/29 11:26:31;;;;;;;;;;;;;;;29.61;25.32;98412.53;5092904;28;20455;-82
2024/02/29 11:28:57;;;;;;;;;;;;;;;30.54;24.54;98409.13;5063181;28;20013;-82
2024/02/29 11:31:23;;;;;;;;;;;;;;;30.42;23.85;98404.38;5082542;28;19916;-82
2024/02/29 11:33:49;;;;;;;;;;;;;;;30.48;23.95;98407.41;5096843;28;20409;-82
2024/02/29 11:36:15;;;;;;;;;;;;;;;30.80;24.20;98395.44;5096729;28;20015;-82
2024/02/29 11:38:42;;;;;;;;;;;;;;;30.97;23.99;98404.44;5096893;28;20387;-82
2024/02/29 11:41:18;;;;;;;;;;;;;;;30.71;23.89;98401.88;5096760;28;19920;-83
2024/02/29 11:43:44;;;;;;;;;;;;;;;29.97;24.27;98395.72;5096546;28;20265;-83
2024/02/29 11:46:10;;;;;;;;;;;;;;;28.63;26.21;98398.00;5096585;28;20300;-83
2024/02/29 11:48:38;;;;;;;;;;;;;;;28.72;26.21;98390.41;5089613;28;19923;-82
2024/02/29 11:51:04;;;;;;;;;;;;;;;29.78;25.50;98392.03;5096456;28;20396;-83
2024/02/29 11:53:31;;;;;;;;;;;;;;;30.58;24.33;98384.25;5095952;28;19944;-83
2024/02/29 11:55:58;;;;;;;;;;;;;;;31.12;23.32;98383.47;5096499;28;20011;-83
2024/02/29 11:58:24;;;;;;;;;;;;;;;28.81;25.34;98380.41;5096675;28;19969;-83
2024/02/29 12:00:50;;;;;;;;;;;;;;;29.26;25.67;98375.91;5096443;28;20333;-83
2024/02/29 12:03:16;;;;;;;;;;;;;;;29.57;24.63;98367.38;5096270;28;19917;-83
2024/02/29 12:05:42;;;;;;;;;;;;;;;30.48;24.86;98370.56;5096551;28;19916;-83
2024/02/29 12:08:09;;;;;;;;;;;;;;;30.93;23.90;98364.09;5096724;28;19915;-83
2024/02/29 12:10:36;;;;;;;;;;;;;;;30.76;23.74;98364.41;5078426;28;20268;-83
2024/02/29 12:13:02;;;;;;;;;;;;;;;29.02;25.60;98371.13;5095717;28;20288;-83
2024/02/29 12:15:28;;;;;;;;;;;;;;;27.38;27.25;98372.25;5095604;28;19920;-83
2024/02/29 12:17:54;;;;;;;;;;;;;;;27.62;27.56;98374.75;5096159;28;20123;-83
2024/02/29 12:20:22;;;;;;;;;;;;;;;26.50;28.40;98368.31;5096040;28;19959;-83
2024/02/29 12:22:56;;;;;;;;;;;;;;;25.61;30.64;98361.31;5095484;28;20019;-83
2024/02/29 12:25:22;;;;;;;;;;;;;;;25.41;30.50;98363.38;5093648;28;19924;-83
2024/02/29 12:27:48;;;;;;;;;;;;;;;25.92;29.49;98354.13;5095257;28;19927;-83
2024/02/29 12:30:14;;;;;;;;;;;;;;;25.72;30.62;98358.28;5093301;28;19924;-83
2024/02/29 12:32:44;;;;;;;;;;;;;;;25.39;30.87;98346.16;5094674;28;20004;-84
2024/02/29 12:35:11;;;;;;;;;;;;;;;27.23;27.94;98347.72;5095761;28;19943;-84
2024/02/29 12:37:38;;;;;;;;;;;;;;;28.78;26.80;98336.88;5095809;28;20019;-84
2024/02/29 12:40:05;;;;;;;;;;;;;;;30.19;24.62;98328.47;5093823;28;20418;-83
2024/02/29 12:42:31;;;;;;;;;;;;;;;29.63;25.07;98334.41;5077479;28;20448;-82
2024/02/29 12:44:58;;;;;;;;;;;;;;;29.61;25.66;98328.44;5095812;28;20371;-83